Time;durP1;ratioP1;P1;durP2;ratioP2;P2;SDS_P1;SDS_P2;PMS_P1;PMS_P2;Temp;Humidity;BMP_temperature;BMP_pressure;BME280_temperature;BME280_humidity;BME280_pressure;Samples;Min_cycle;Max_cycle;Signal;HPM_P1;HPM_P2
2022/06/23 00:00:42;;;;;;;;;;;;;;;26.20;53.09;99200.25;2061497;28;19924;-57
2022/06/23 00:01:47;;;;;;;;;;;;;;;26.20;53.02;99200.25;2067189;28;19919;-57
2022/06/23 00:02:47;;;;;;;;;;;;;;;26.20;53.12;99200.25;2069932;28;20236;-57
2022/06/23 00:03:49;;;;;;;;;;;;;;;26.19;52.98;99201.28;2064273;28;20115;-57
2022/06/23 00:04:50;;;;;;;;;;;;;;;26.20;53.11;99200.25;2065470;28;19921;-57
2022/06/23 00:05:54;;;;;;;;;;;;;;;26.20;52.80;99200.25;2066058;28;19916;-57
2022/06/23 00:06:57;;;;;;;;;;;;;;;26.19;52.84;99193.00;2067412;28;19917;-57
2022/06/23 00:07:59;;;;;;;;;;;;;;;26.19;53.09;99193.00;2071501;28;19924;-57
2022/06/23 00:08:59;;;;;;;;;;;;;;;26.20;52.99;99191.97;2064462;28;20017;-57
2022/06/23 00:10:02;;;;;;;;;;;;;;;26.19;52.98;99193.88;2066134;28;19920;-57
2022/06/23 00:11:02;;;;;;;;;;;;;;;26.20;52.75;99191.97;2067081;28;20263;-57
2022/06/23 00:12:29;;;;;;;;;;;;;;;26.19;52.88;99190.25;2065434;28;19928;-57
2022/06/23 00:13:34;;;;;;;;;;;;;;;26.19;53.01;99193.00;2060582;28;19972;-57
2022/06/23 00:14:34;;;;;;;;;;;;;;;26.20;52.75;99189.19;2070267;28;19921;-56
2022/06/23 00:15:39;;;;;;;;;;;;;;;26.20;52.82;99194.72;2070555;28;19916;-57
2022/06/23 00:16:40;;;;;;;;;;;;;;;26.20;52.88;99186.44;2065979;28;20041;-57
2022/06/23 00:17:42;;;;;;;;;;;;;;;26.19;52.74;99196.66;2075074;28;20737;-57
2022/06/23 00:18:42;;;;;;;;;;;;;;;26.20;52.72;99191.97;2068042;28;19913;-57
2022/06/23 00:19:44;;;;;;;;;;;;;;;26.20;52.70;99197.47;2073079;28;19917;-58
2022/06/23 00:20:49;;;;;;;;;;;;;;;26.20;52.62;99191.97;2074036;28;19967;-57
2022/06/23 00:21:53;;;;;;;;;;;;;;;26.19;52.96;99193.88;2066501;28;19921;-57
2022/06/23 00:22:58;;;;;;;;;;;;;;;26.19;53.01;99193.00;2067536;28;19909;-57
2022/06/23 00:24:01;;;;;;;;;;;;;;;26.20;52.97;99194.72;2062522;28;20366;-57
2022/06/23 00:25:04;;;;;;;;;;;;;;;26.20;52.71;99189.19;2074006;28;19913;-57
2022/06/23 00:26:34;;;;;;;;;;;;;;;26.19;52.82;99193.00;2068844;28;20381;-57
2022/06/23 00:27:38;;;;;;;;;;;;;;;26.19;52.68;99195.78;2055639;28;19948;-57
2022/06/23 00:28:47;;;;;;;;;;;;;;;26.19;52.90;99193.00;2066677;28;20393;-57
2022/06/23 00:29:47;;;;;;;;;;;;;;;26.17;52.77;99184.97;2071472;28;20545;-57
2022/06/23 00:30:51;;;;;;;;;;;;;;;26.17;52.74;99187.72;2067952;28;20387;-57
2022/06/23 00:31:58;;;;;;;;;;;;;;;26.17;53.04;99184.13;2077148;28;20195;-57
2022/06/23 00:33:04;;;;;;;;;;;;;;;26.17;52.88;99179.44;2064229;28;19925;-57
2022/06/23 00:34:14;;;;;;;;;;;;;;;26.15;52.88;99181.56;2065200;28;19926;-57
2022/06/23 00:35:16;;;;;;;;;;;;;;;26.17;53.06;99184.13;2061900;28;19918;-57
2022/06/23 00:36:31;;;;;;;;;;;;;;;26.17;53.12;99181.34;2070188;28;20470;-57
2022/06/23 00:37:32;;;;;;;;;;;;;;;26.16;53.15;99177.72;2070112;28;19923;-57
2022/06/23 00:38:38;;;;;;;;;;;;;;;26.17;52.91;99178.59;2070229;28;19921;-57
2022/06/23 00:39:50;;;;;;;;;;;;;;;26.16;53.11;99171.34;2074493;28;20005;-57
2022/06/23 00:40:51;;;;;;;;;;;;;;;26.16;52.97;99171.34;2071447;28;19917;-57
2022/06/23 00:41:51;;;;;;;;;;;;;;;26.15;52.89;99165.00;2068443;28;19936;-57
2022/06/23 00:42:55;;;;;;;;;;;;;;;26.15;52.99;99164.16;2077543;28;19980;-57
2022/06/23 00:43:57;;;;;;;;;;;;;;;26.16;53.15;99165.84;2072389;28;20290;-57
2022/06/23 00:45:00;;;;;;;;;;;;;;;26.16;53.12;99165.84;2069383;28;19936;-57
2022/06/23 00:46:03;;;;;;;;;;;;;;;26.16;52.96;99161.16;2076047;28;20374;-58
2022/06/23 00:47:12;;;;;;;;;;;;;;;26.16;53.30;99161.16;2068900;28;20103;-57
2022/06/23 00:48:22;;;;;;;;;;;;;;;26.16;53.20;99160.31;2059943;28;19925;-57
2022/06/23 00:49:29;;;;;;;;;;;;;;;26.16;52.97;99163.91;2074682;28;19929;-57
2022/06/23 00:50:34;;;;;;;;;;;;;;;26.16;53.04;99160.31;2070768;28;19920;-57
2022/06/23 00:51:43;;;;;;;;;;;;;;;26.17;53.13;99167.53;2074364;28;20602;-57
2022/06/23 00:52:48;;;;;;;;;;;;;;;26.16;53.08;99160.31;2077098;28;20546;-57
2022/06/23 00:53:48;;;;;;;;;;;;;;;26.16;53.26;99161.16;2072345;28;19944;-57
2022/06/23 00:54:51;;;;;;;;;;;;;;;26.17;53.34;99167.53;2076783;28;19960;-57
2022/06/23 00:55:51;;;;;;;;;;;;;;;26.17;53.32;99162.03;2073173;28;19909;-57
2022/06/23 00:56:59;;;;;;;;;;;;;;;26.15;53.33;99166.91;2078651;28;20017;-57
2022/06/23 00:58:01;;;;;;;;;;;;;;;26.16;53.07;99168.59;2075251;28;20602;-57
2022/06/23 00:59:04;;;;;;;;;;;;;;;26.16;52.93;99160.31;2074970;28;19913;-57
2022/06/23 01:00:09;;;;;;;;;;;;;;;26.15;53.36;99153.09;2073248;28;20259;-55
2022/06/23 01:01:22;;;;;;;;;;;;;;;26.16;53.43;99160.31;2069810;28;20008;-55
2022/06/23 01:02:48;;;;;;;;;;;;;;;26.16;53.19;99152.03;2072869;28;19924;-55
2022/06/23 01:03:51;;;;;;;;;;;;;;;26.15;53.34;99155.88;2072075;28;19944;-55
2022/06/23 01:05:21;;;;;;;;;;;;;;;26.15;53.22;99150.34;2076081;28;19978;-55
2022/06/23 01:06:21;;;;;;;;;;;;;;;26.16;53.41;99160.31;2065551;28;19917;-55
2022/06/23 01:07:31;;;;;;;;;;;;;;;26.15;53.20;99153.09;2077521;28;20115;-55
2022/06/23 01:08:35;;;;;;;;;;;;;;;26.14;53.20;99157.78;2079504;28;20032;-55
2022/06/23 01:09:44;;;;;;;;;;;;;;;26.15;53.17;99155.88;2083015;28;19977;-55
2022/06/23 01:11:00;;;;;;;;;;;;;;;26.13;53.62;99155.22;2068961;28;20304;-55
2022/06/23 01:12:12;;;;;;;;;;;;;;;26.13;53.30;99153.31;2081589;28;19944;-55
2022/06/23 01:13:18;;;;;;;;;;;;;;;26.14;53.29;99151.38;2079163;28;19967;-55
2022/06/23 01:14:29;;;;;;;;;;;;;;;26.13;53.38;99153.31;2078018;28;20256;-55
2022/06/23 01:15:32;;;;;;;;;;;;;;;26.12;53.28;99146.09;2068718;28;20025;-55
2022/06/23 01:16:45;;;;;;;;;;;;;;;26.13;53.54;99146.94;2069594;28;20024;-55
2022/06/23 01:17:50;;;;;;;;;;;;;;;26.11;53.56;99149.91;2063773;28;19917;-55
2022/06/23 01:18:50;;;;;;;;;;;;;;;26.12;53.28;99150.78;2068473;28;19917;-55
2022/06/23 01:20:01;;;;;;;;;;;;;;;26.12;53.32;99148.03;2074749;28;20543;-55
2022/06/23 01:21:04;;;;;;;;;;;;;;;26.12;53.52;99145.25;2072694;28;19917;-55
2022/06/23 01:22:08;;;;;;;;;;;;;;;26.12;53.41;99145.25;2071847;28;20010;-55
2022/06/23 01:23:14;;;;;;;;;;;;;;;26.12;53.34;99156.31;2075308;28;20335;-54
2022/06/23 01:24:17;;;;;;;;;;;;;;;26.12;53.33;99148.03;2076781;28;19916;-55
2022/06/23 01:25:21;;;;;;;;;;;;;;;26.12;53.67;99148.88;2073698;28;20255;-55
2022/06/23 01:26:30;;;;;;;;;;;;;;;26.12;53.39;99153.56;2076650;28;20339;-55
2022/06/23 01:27:40;;;;;;;;;;;;;;;26.12;53.22;99153.56;2074552;28;19948;-55
2022/06/23 01:28:41;;;;;;;;;;;;;;;26.13;53.66;99149.72;2073300;28;19913;-55
2022/06/23 01:29:57;;;;;;;;;;;;;;;26.12;53.60;99148.03;2080239;28;19923;-55
2022/06/23 01:31:03;;;;;;;;;;;;;;;26.13;53.33;99152.47;2076667;28;19920;-55
2022/06/23 01:32:19;;;;;;;;;;;;;;;26.13;53.43;99155.22;2073660;28;19967;-55
2022/06/23 01:33:26;;;;;;;;;;;;;;;26.13;53.57;99152.47;2073461;28;19917;-55
2022/06/23 01:34:33;;;;;;;;;;;;;;;26.12;53.45;99157.16;2073488;28;19917;-55
2022/06/23 01:35:39;;;;;;;;;;;;;;;26.12;53.47;99145.25;2080191;28;20469;-55
2022/06/23 01:36:49;;;;;;;;;;;;;;;26.12;53.66;99148.03;2075582;28;19913;-55
2022/06/23 01:37:53;;;;;;;;;;;;;;;26.12;53.61;99153.56;2075744;28;19971;-55
2022/06/23 01:39:06;;;;;;;;;;;;;;;26.13;53.43;99152.47;2077045;28;19980;-55
2022/06/23 01:40:25;;;;;;;;;;;;;;;26.13;53.63;99155.22;2074465;28;19921;-57
2022/06/23 01:41:45;;;;;;;;;;;;;;;26.13;53.50;99155.22;2076869;28;19923;-57
2022/06/23 01:42:58;;;;;;;;;;;;;;;26.13;53.83;99160.75;2075675;28;19908;-57
2022/06/23 01:44:18;;;;;;;;;;;;;;;26.12;53.85;99156.31;2074282;28;20003;-57
2022/06/23 01:45:24;;;;;;;;;;;;;;;26.12;53.75;99153.56;2071687;28;20412;-55
2022/06/23 01:46:31;;;;;;;;;;;;;;;26.12;53.65;99153.56;2075659;28;19924;-55
2022/06/23 01:47:49;;;;;;;;;;;;;;;26.12;53.67;99153.56;2075180;28;20107;-56
2022/06/23 01:49:02;;;;;;;;;;;;;;;26.12;53.69;99153.56;2071599;28;19920;-54
2022/06/23 01:50:20;;;;;;;;;;;;;;;26.11;53.74;99152.69;2075338;28;19935;-55
2022/06/23 01:51:27;;;;;;;;;;;;;;;26.10;53.72;99151.00;2074791;28;19919;-56
2022/06/23 01:52:27;;;;;;;;;;;;;;;26.10;53.84;99145.47;2075466;28;19911;-56
2022/06/23 01:53:33;;;;;;;;;;;;;;;26.11;53.75;99146.31;2076321;28;20358;-55
2022/06/23 01:54:34;;;;;;;;;;;;;;;26.11;54.12;99151.84;2076277;28;20278;-55
2022/06/23 01:55:48;;;;;;;;;;;;;;;26.08;53.96;99137.41;2077276;28;20148;-56
2022/06/23 01:56:54;;;;;;;;;;;;;;;26.09;53.98;99143.75;2075188;28;19940;-55
2022/06/23 01:57:58;;;;;;;;;;;;;;;26.08;53.98;99142.91;2075021;28;19924;-55
2022/06/23 01:59:15;;;;;;;;;;;;;;;26.08;53.77;99137.41;2076368;28;19908;-55
2022/06/23 02:00:20;;;;;;;;;;;;;;;26.07;53.98;99141.22;2068822;28;20292;-55
2022/06/23 02:01:26;;;;;;;;;;;;;;;26.08;54.06;99131.88;2070941;28;19917;-55
2022/06/23 02:02:40;;;;;;;;;;;;;;;26.07;54.03;99138.47;2070409;28;19912;-55
2022/06/23 02:03:42;;;;;;;;;;;;;;;26.07;54.02;99141.22;2069547;28;20473;-56
2022/06/23 02:04:49;;;;;;;;;;;;;;;26.08;53.80;99131.88;2077684;28;20223;-55
2022/06/23 02:05:58;;;;;;;;;;;;;;;26.08;54.08;99137.41;2074105;28;20289;-56
2022/06/23 02:07:14;;;;;;;;;;;;;;;26.09;54.07;99139.09;2076536;28;19913;-55
2022/06/23 02:08:21;;;;;;;;;;;;;;;26.08;53.80;99142.91;2071787;28;19917;-55
2022/06/23 02:09:29;;;;;;;;;;;;;;;26.08;54.07;99134.63;2075795;28;19917;-55
2022/06/23 02:10:44;;;;;;;;;;;;;;;26.08;54.06;99140.16;2075357;28;19913;-55
2022/06/23 02:11:47;;;;;;;;;;;;;;;26.08;54.08;99137.41;2069267;28;19917;-55
2022/06/23 02:12:51;;;;;;;;;;;;;;;26.08;54.16;99129.09;2069129;28;20124;-55
2022/06/23 02:14:03;;;;;;;;;;;;;;;26.07;53.92;99132.94;2066397;28;19935;-55
2022/06/23 02:15:07;;;;;;;;;;;;;;;26.08;54.08;99134.63;2068892;28;20346;-55
2022/06/23 02:16:11;;;;;;;;;;;;;;;26.08;54.08;99134.63;2072966;28;20360;-56
2022/06/23 02:17:11;;;;;;;;;;;;;;;26.08;54.07;99131.88;2071697;28;19986;-55
2022/06/23 02:18:14;;;;;;;;;;;;;;;26.08;54.14;99123.59;2075208;28;20278;-56
2022/06/23 02:19:14;;;;;;;;;;;;;;;26.08;54.05;99126.34;2070379;28;19917;-56
2022/06/23 02:20:30;;;;;;;;;;;;;;;26.08;54.14;99125.50;2069902;28;19916;-55
2022/06/23 02:21:43;;;;;;;;;;;;;;;26.09;54.01;99121.66;2075958;28;19912;-55
2022/06/23 02:22:45;;;;;;;;;;;;;;;26.08;53.91;99120.81;2075668;28;19959;-55
2022/06/23 02:24:21;;;;;;;;;;;;;;;26.08;54.02;99125.50;2076256;28;19924;-56
2022/06/23 02:25:25;;;;;;;;;;;;;;;26.07;54.26;99130.19;2051868;28;20335;-56
2022/06/23 02:26:37;;;;;;;;;;;;;;;26.08;53.96;99125.50;2058865;28;19918;-55
2022/06/23 02:27:37;;;;;;;;;;;;;;;26.08;54.24;99126.34;2062008;28;19997;-56
2022/06/23 02:28:41;;;;;;;;;;;;;;;26.07;54.23;99124.66;2076122;28;19927;-55
2022/06/23 02:29:44;;;;;;;;;;;;;;;26.08;54.00;99131.88;2076236;28;19959;-55
2022/06/23 02:30:47;;;;;;;;;;;;;;;26.08;54.20;99131.03;2076414;28;19916;-55
2022/06/23 02:32:04;;;;;;;;;;;;;;;26.07;54.23;99130.19;2074533;28;19923;-56
2022/06/23 02:33:30;;;;;;;;;;;;;;;26.07;54.32;99141.22;2073360;28;20709;-56
2022/06/23 02:34:33;;;;;;;;;;;;;;;26.06;54.46;99131.25;2050521;28;19924;-55
2022/06/23 02:35:43;;;;;;;;;;;;;;;26.06;54.36;99131.25;2075697;28;19917;-55
2022/06/23 02:37:05;;;;;;;;;;;;;;;26.06;54.07;99127.63;2071740;28;19908;-56
2022/06/23 02:38:12;;;;;;;;;;;;;;;26.06;54.27;99134.00;2075426;28;20023;-55
2022/06/23 02:39:17;;;;;;;;;;;;;;;26.06;54.07;99127.63;2075278;28;19916;-55
2022/06/23 02:40:30;;;;;;;;;;;;;;;26.05;54.33;99137.84;2074823;28;19921;-55
2022/06/23 02:41:33;;;;;;;;;;;;;;;26.06;54.16;99135.91;2078968;28;19916;-55
2022/06/23 02:42:37;;;;;;;;;;;;;;;26.05;54.15;99128.72;2072190;28;20042;-56
2022/06/23 02:43:43;;;;;;;;;;;;;;;26.04;54.11;99141.69;2074869;28;20078;-56
2022/06/23 02:44:52;;;;;;;;;;;;;;;26.04;54.09;99136.16;2075714;28;19913;-55
2022/06/23 02:45:58;;;;;;;;;;;;;;;26.05;54.03;99137.00;2074000;28;19944;-55
2022/06/23 02:47:04;;;;;;;;;;;;;;;26.06;54.35;99135.91;2075074;28;19920;-55
2022/06/23 02:48:21;;;;;;;;;;;;;;;26.05;54.07;99137.84;2073333;28;19928;-56
2022/06/23 02:49:21;;;;;;;;;;;;;;;26.05;54.27;99134.25;2068627;28;20158;-55
2022/06/23 02:50:31;;;;;;;;;;;;;;;26.04;54.08;99133.41;2079204;28;19966;-55
2022/06/23 02:51:35;;;;;;;;;;;;;;;26.04;54.34;99135.28;2065942;28;20001;-55
2022/06/23 02:52:49;;;;;;;;;;;;;;;26.04;53.96;99125.13;2070198;28;19917;-55
2022/06/23 02:53:49;;;;;;;;;;;;;;;26.05;54.29;99126.78;2072829;28;19951;-55
2022/06/23 02:55:08;;;;;;;;;;;;;;;26.05;54.31;99137.84;2070819;28;19916;-56
2022/06/23 02:56:08;;;;;;;;;;;;;;;26.05;54.22;99131.47;2067687;28;20287;-55
2022/06/23 02:57:08;;;;;;;;;;;;;;;26.04;54.09;99130.63;2058613;28;19984;-56
2022/06/23 02:58:13;;;;;;;;;;;;;;;26.06;54.22;99133.16;2062532;28;20500;-55
2022/06/23 02:59:17;;;;;;;;;;;;;;;26.05;54.13;99137.84;2069529;28;19913;-55
2022/06/23 03:00:28;;;;;;;;;;;;;;;26.05;54.17;99132.31;2071303;28;19921;-55
2022/06/23 03:01:38;;;;;;;;;;;;;;;26.05;54.40;99132.31;2071141;28;19913;-55
2022/06/23 03:02:48;;;;;;;;;;;;;;;26.05;54.25;99134.25;2072619;28;20399;-55
2022/06/23 03:03:55;;;;;;;;;;;;;;;26.05;54.39;99134.25;2075432;28;20010;-55
2022/06/23 03:05:15;;;;;;;;;;;;;;;26.04;54.17;99130.63;2072568;28;19952;-55
2022/06/23 03:06:22;;;;;;;;;;;;;;;26.05;54.30;99140.59;2072019;28;20332;-55
2022/06/23 03:07:30;;;;;;;;;;;;;;;26.05;54.11;99137.00;2073753;28;19924;-55
2022/06/23 03:08:44;;;;;;;;;;;;;;;26.05;54.32;99137.84;2076882;28;19917;-56
2022/06/23 03:09:46;;;;;;;;;;;;;;;26.04;54.43;99130.63;2071312;28;19927;-55
2022/06/23 03:10:47;;;;;;;;;;;;;;;26.05;54.25;99132.31;2075553;28;19909;-57
2022/06/23 03:12:16;;;;;;;;;;;;;;;26.05;54.40;99131.47;2075244;28;19909;-58
2022/06/23 03:13:16;;;;;;;;;;;;;;;26.03;54.32;99128.91;2060258;28;20200;-57
2022/06/23 03:14:29;;;;;;;;;;;;;;;26.03;54.43;99128.91;2072867;28;19996;-57
2022/06/23 03:15:36;;;;;;;;;;;;;;;26.03;54.29;99126.16;2069252;28;20047;-57
2022/06/23 03:16:42;;;;;;;;;;;;;;;26.03;54.48;99128.09;2072298;28;19917;-57
2022/06/23 03:17:49;;;;;;;;;;;;;;;26.02;54.46;99124.47;2069902;28;19983;-57
2022/06/23 03:18:58;;;;;;;;;;;;;;;26.03;54.54;99125.31;2062508;28;19917;-57
2022/06/23 03:20:05;;;;;;;;;;;;;;;26.03;54.26;99126.16;2061764;28;20592;-57
2022/06/23 03:21:13;;;;;;;;;;;;;;;26.03;54.49;99128.91;2065915;28;19925;-57
2022/06/23 03:22:21;;;;;;;;;;;;;;;26.01;54.42;99122.75;2068243;28;19955;-57
2022/06/23 03:23:21;;;;;;;;;;;;;;;26.01;54.33;99122.75;2061671;28;20221;-57
2022/06/23 03:24:26;;;;;;;;;;;;;;;26.01;54.44;99122.75;2065596;28;19924;-55
2022/06/23 03:25:32;;;;;;;;;;;;;;;26.01;54.26;99128.28;2070047;28;20011;-55
2022/06/23 03:26:41;;;;;;;;;;;;;;;26.01;54.26;99133.81;2068500;28;20243;-55
2022/06/23 03:27:48;;;;;;;;;;;;;;;26.01;54.41;99125.53;2070179;28;20741;-55
2022/06/23 03:28:51;;;;;;;;;;;;;;;26.00;54.57;99129.38;2069936;28;19913;-55
2022/06/23 03:29:55;;;;;;;;;;;;;;;26.00;54.59;99132.13;2064626;28;19920;-55
2022/06/23 03:31:11;;;;;;;;;;;;;;;26.01;54.39;99131.03;2069314;28;19967;-55
2022/06/23 03:32:11;;;;;;;;;;;;;;;26.01;54.33;99130.22;2069140;28;20384;-55
2022/06/23 03:33:12;;;;;;;;;;;;;;;26.02;54.23;99129.16;2070140;28;19913;-55
2022/06/23 03:34:22;;;;;;;;;;;;;;;26.01;54.18;99124.69;2075301;28;19912;-55
2022/06/23 03:35:26;;;;;;;;;;;;;;;26.01;54.28;99125.53;2068994;28;19917;-55
2022/06/23 03:36:34;;;;;;;;;;;;;;;26.02;54.24;99124.47;2065593;28;19921;-55
2022/06/23 03:37:40;;;;;;;;;;;;;;;26.02;54.32;99129.16;2070000;28;19925;-55
2022/06/23 03:41:48;;;;;;;;;;;;;;;26.01;54.43;99116.41;2071237;28;20395;-55
2022/06/23 03:42:59;;;;;;;;;;;;;;;26.02;54.32;99120.88;2070767;28;19913;-55
2022/06/23 03:44:11;;;;;;;;;;;;;;;26.01;54.27;99108.97;2071977;28;19909;-55
2022/06/23 03:45:30;;;;;;;;;;;;;;;26.02;54.47;99110.66;2068487;28;19917;-55
2022/06/23 03:46:33;;;;;;;;;;;;;;;26.01;54.33;99114.47;2069662;28;19976;-55
2022/06/23 03:47:43;;;;;;;;;;;;;;;26.00;54.49;99107.28;2068680;28;20397;-55
2022/06/23 03:48:47;;;;;;;;;;;;;;;26.00;54.52;99112.81;2065630;28;19932;-55
2022/06/23 03:49:50;;;;;;;;;;;;;;;26.01;54.19;99108.97;2075399;28;19925;-55
2022/06/23 03:50:59;;;;;;;;;;;;;;;26.01;54.56;99108.13;2075870;28;19916;-55
2022/06/23 03:52:02;;;;;;;;;;;;;;;26.00;54.52;99104.50;2078032;28;19923;-55
2022/06/23 03:53:08;;;;;;;;;;;;;;;26.00;54.29;99096.22;2080054;28;19928;-55
2022/06/23 03:54:14;;;;;;;;;;;;;;;26.01;54.63;99099.84;2077419;28;19975;-55
2022/06/23 03:55:17;;;;;;;;;;;;;;;26.00;54.47;99101.75;2075917;28;20373;-55
2022/06/23 03:56:20;;;;;;;;;;;;;;;26.00;54.30;99101.75;2076278;28;19936;-55
2022/06/23 03:57:25;;;;;;;;;;;;;;;26.00;54.65;99090.72;2073887;28;19909;-55
2022/06/23 03:58:28;;;;;;;;;;;;;;;26.00;54.59;99093.47;2072430;28;19921;-55
2022/06/23 03:59:31;;;;;;;;;;;;;;;25.99;54.31;99097.31;2076413;28;19913;-55
2022/06/23 04:00:34;;;;;;;;;;;;;;;25.99;54.62;99093.69;2077164;28;19919;-55
2022/06/23 04:01:49;;;;;;;;;;;;;;;25.99;54.60;99097.31;2079648;28;19920;-55
2022/06/23 04:03:01;;;;;;;;;;;;;;;25.99;54.39;99093.69;2077590;28;20781;-55
2022/06/23 04:04:03;;;;;;;;;;;;;;;25.98;54.25;99098.34;2078894;28;20421;-55
2022/06/23 04:05:04;;;;;;;;;;;;;;;25.99;54.38;99094.56;2072865;28;20014;-55
2022/06/23 04:06:07;;;;;;;;;;;;;;;25.98;54.32;99095.59;2080167;28;19959;-55
2022/06/23 04:07:36;;;;;;;;;;;;;;;25.97;54.56;99096.69;2076660;28;19916;-55
2022/06/23 04:08:42;;;;;;;;;;;;;;;25.98;54.55;99098.34;2063923;28;19948;-55
2022/06/23 04:09:43;;;;;;;;;;;;;;;25.98;54.30;99089.22;2078326;28;20662;-55
2022/06/23 04:10:44;;;;;;;;;;;;;;;25.98;54.33;99092.84;2077834;28;19916;-55
2022/06/23 04:12:04;;;;;;;;;;;;;;;25.97;54.40;99096.69;2074584;28;19921;-55
2022/06/23 04:13:28;;;;;;;;;;;;;;;25.97;54.61;99096.69;2071607;28;19923;-55
2022/06/23 04:14:40;;;;;;;;;;;;;;;25.97;54.34;99093.91;2075096;28;20007;-55
2022/06/23 04:15:42;;;;;;;;;;;;;;;25.97;54.49;99091.16;2072210;28;19948;-55
2022/06/23 04:16:43;;;;;;;;;;;;;;;25.98;54.61;99086.47;2076292;28;19924;-55
2022/06/23 04:17:55;;;;;;;;;;;;;;;25.97;54.41;99091.16;2074184;28;19913;-55
2022/06/23 04:18:55;;;;;;;;;;;;;;;25.97;54.39;99091.16;2078158;28;20505;-55
2022/06/23 04:20:01;;;;;;;;;;;;;;;25.97;54.32;99082.88;2077757;28;19921;-55
2022/06/23 04:21:04;;;;;;;;;;;;;;;25.97;54.56;99085.63;2073091;28;20086;-55
2022/06/23 04:22:10;;;;;;;;;;;;;;;25.97;54.40;99088.41;2073938;28;20012;-55
2022/06/23 04:23:25;;;;;;;;;;;;;;;25.97;54.33;99085.63;2073147;28;19975;-55
2022/06/23 04:24:26;;;;;;;;;;;;;;;25.98;54.48;99081.78;2072305;28;20360;-55
2022/06/23 04:25:56;;;;;;;;;;;;;;;25.97;54.40;99082.88;2077786;28;20347;-55
2022/06/23 04:27:03;;;;;;;;;;;;;;;25.98;54.59;99087.31;2072155;28;20792;-55
2022/06/23 04:28:03;;;;;;;;;;;;;;;25.98;54.68;99087.31;2076936;28;20268;-55
2022/06/23 04:29:09;;;;;;;;;;;;;;;25.97;54.42;99091.16;2079563;28;19923;-55
2022/06/23 04:30:18;;;;;;;;;;;;;;;25.97;54.39;99096.69;2075278;28;19920;-55
2022/06/23 04:31:25;;;;;;;;;;;;;;;25.97;54.71;99085.63;2072748;28;19914;-55
2022/06/23 04:32:28;;;;;;;;;;;;;;;25.97;54.63;99088.41;2078458;28;20615;-55
2022/06/23 04:33:28;;;;;;;;;;;;;;;25.97;54.60;99091.16;2079190;28;20001;-55
2022/06/23 04:34:34;;;;;;;;;;;;;;;25.98;54.46;99092.00;2070327;28;19938;-55
2022/06/23 04:35:36;;;;;;;;;;;;;;;25.97;54.67;99093.91;2077871;28;20339;-55
2022/06/23 04:36:42;;;;;;;;;;;;;;;25.98;54.68;99092.00;2079251;28;19924;-57
2022/06/23 04:37:48;;;;;;;;;;;;;;;25.96;54.52;99089.44;2069511;28;19917;-57
2022/06/23 04:38:51;;;;;;;;;;;;;;;25.96;54.58;99091.38;2081084;28;19970;-57
2022/06/23 04:40:03;;;;;;;;;;;;;;;25.97;54.47;99084.75;2079648;28;20160;-57
2022/06/23 04:41:09;;;;;;;;;;;;;;;25.96;54.54;99094.97;2069654;28;19906;-57
2022/06/23 04:42:18;;;;;;;;;;;;;;;25.96;54.73;99088.59;2069443;28;20404;-57
2022/06/23 04:43:37;;;;;;;;;;;;;;;25.94;54.56;99091.56;2072085;28;19923;-58
2022/06/23 04:44:43;;;;;;;;;;;;;;;25.95;54.64;99098.81;2082538;28;19915;-58
2022/06/23 04:45:43;;;;;;;;;;;;;;;25.94;54.77;99094.34;2086117;28;20295;-57
2022/06/23 04:46:50;;;;;;;;;;;;;;;25.94;54.64;99097.09;2079407;28;19924;-57
2022/06/23 04:47:53;;;;;;;;;;;;;;;25.94;54.45;99097.09;2081835;28;19958;-57
2022/06/23 04:48:56;;;;;;;;;;;;;;;25.93;54.48;99100.94;2081572;28;19909;-57
2022/06/23 04:50:03;;;;;;;;;;;;;;;25.93;54.44;99098.16;2076078;28;19917;-58
2022/06/23 04:51:15;;;;;;;;;;;;;;;25.94;54.73;99096.25;2076286;28;19913;-57
2022/06/23 04:52:15;;;;;;;;;;;;;;;25.93;54.72;99098.16;2078439;28;19905;-57
2022/06/23 04:53:19;;;;;;;;;;;;;;;25.93;54.48;99106.44;2076793;28;19909;-57
2022/06/23 04:54:23;;;;;;;;;;;;;;;25.94;54.71;99096.25;2076525;28;20371;-57
2022/06/23 04:55:26;;;;;;;;;;;;;;;25.93;54.58;99100.94;2078285;28;20221;-57
2022/06/23 04:56:35;;;;;;;;;;;;;;;25.93;54.43;99103.69;2076415;28;20231;-57
2022/06/23 04:57:38;;;;;;;;;;;;;;;25.93;54.72;99100.94;2079860;28;20472;-57
2022/06/23 04:58:51;;;;;;;;;;;;;;;25.95;54.68;99103.50;2077119;28;19909;-58
2022/06/23 04:59:53;;;;;;;;;;;;;;;25.93;54.45;99106.44;2077235;28;20917;-57
2022/06/23 05:00:54;;;;;;;;;;;;;;;25.94;54.50;99105.38;2077502;28;20023;-57
2022/06/23 05:01:56;;;;;;;;;;;;;;;25.93;54.56;99106.44;2077808;28;19923;-57
2022/06/23 05:02:59;;;;;;;;;;;;;;;25.94;54.39;99105.38;2076974;28;19925;-57
2022/06/23 05:04:00;;;;;;;;;;;;;;;25.94;54.40;99101.78;2079304;28;20396;-58
2022/06/23 05:05:04;;;;;;;;;;;;;;;25.94;54.69;99102.63;2077384;28;19913;-57
2022/06/23 05:06:10;;;;;;;;;;;;;;;25.94;54.61;99105.38;2076731;28;19924;-57
2022/06/23 05:07:30;;;;;;;;;;;;;;;25.94;54.35;99099.00;2076960;28;19917;-57
2022/06/23 05:08:32;;;;;;;;;;;;;;;25.94;54.57;99101.78;2074503;28;20015;-57
2022/06/23 05:09:37;;;;;;;;;;;;;;;25.94;54.70;99096.25;2077492;28;19947;-57
2022/06/23 05:10:44;;;;;;;;;;;;;;;25.94;54.63;99099.00;2076243;28;19921;-57
2022/06/23 05:11:48;;;;;;;;;;;;;;;25.93;54.69;99100.94;2076683;28;19938;-57
2022/06/23 05:12:51;;;;;;;;;;;;;;;25.94;54.55;99097.09;2072719;28;19916;-57
2022/06/23 05:13:55;;;;;;;;;;;;;;;25.93;54.40;99094.56;2067651;28;20146;-57
2022/06/23 05:14:59;;;;;;;;;;;;;;;25.93;54.67;99089.88;2067990;28;19917;-57
2022/06/23 05:16:02;;;;;;;;;;;;;;;25.94;54.36;99096.25;2076814;28;20162;-58
2022/06/23 05:17:05;;;;;;;;;;;;;;;25.93;54.51;99092.66;2076136;28;19968;-57
2022/06/23 05:18:12;;;;;;;;;;;;;;;25.93;54.66;99084.38;2076076;28;20177;-57
2022/06/23 05:19:23;;;;;;;;;;;;;;;25.92;54.63;99085.44;2077241;28;19916;-57
2022/06/23 05:20:30;;;;;;;;;;;;;;;25.93;54.72;99095.41;2076439;28;19921;-57
2022/06/23 05:21:39;;;;;;;;;;;;;;;25.92;54.71;99096.50;2077651;28;20020;-58
2022/06/23 05:22:41;;;;;;;;;;;;;;;25.92;54.52;99093.72;2077835;28;20099;-57
2022/06/23 05:23:50;;;;;;;;;;;;;;;25.92;54.41;99087.34;2076328;28;20258;-57
2022/06/23 05:24:51;;;;;;;;;;;;;;;25.91;54.67;99092.03;2079468;28;19920;-58
2022/06/23 05:25:53;;;;;;;;;;;;;;;25.90;54.49;99090.34;2075120;28;20442;-57
2022/06/23 05:26:59;;;;;;;;;;;;;;;25.90;54.53;99084.81;2076417;28;20378;-57
2022/06/23 05:28:02;;;;;;;;;;;;;;;25.90;54.61;99084.81;2076695;28;19917;-57
2022/06/23 05:29:05;;;;;;;;;;;;;;;25.91;54.53;99082.91;2076895;28;19990;-58
2022/06/23 05:30:14;;;;;;;;;;;;;;;25.90;54.77;99086.72;2075600;28;20058;-57
2022/06/23 05:31:20;;;;;;;;;;;;;;;25.90;54.58;99089.50;2077157;28;19960;-57
2022/06/23 05:32:21;;;;;;;;;;;;;;;25.89;54.48;99085.88;2080957;28;19939;-57
2022/06/23 05:33:31;;;;;;;;;;;;;;;25.90;54.47;99093.09;2077928;28;19941;-55
2022/06/23 05:34:34;;;;;;;;;;;;;;;25.90;54.76;99095.84;2076917;28;19921;-55
2022/06/23 05:35:39;;;;;;;;;;;;;;;25.90;54.46;99090.34;2076633;28;20132;-55
2022/06/23 05:36:52;;;;;;;;;;;;;;;25.90;54.65;99095.84;2076370;28;20226;-55
2022/06/23 05:37:55;;;;;;;;;;;;;;;25.90;54.69;99095.84;2077430;28;20228;-55
2022/06/23 05:38:59;;;;;;;;;;;;;;;25.90;54.42;99090.34;2077937;28;19909;-55
2022/06/23 05:40:10;;;;;;;;;;;;;;;25.90;54.42;99087.56;2075975;28;19913;-55
2022/06/23 05:41:18;;;;;;;;;;;;;;;25.91;54.66;99094.78;2078216;28;19920;-55
2022/06/23 05:42:22;;;;;;;;;;;;;;;25.91;54.43;99091.19;2076881;28;19963;-55
2022/06/23 05:43:24;;;;;;;;;;;;;;;25.91;54.43;99097.53;2071130;28;19971;-55
2022/06/23 05:44:27;;;;;;;;;;;;;;;25.91;54.52;99103.06;2072753;28;19921;-55
2022/06/23 05:45:37;;;;;;;;;;;;;;;25.92;54.64;99106.66;2078393;28;20102;-55
2022/06/23 05:46:40;;;;;;;;;;;;;;;25.90;54.69;99106.91;2073316;28;20244;-55
2022/06/23 05:47:41;;;;;;;;;;;;;;;25.91;54.60;99103.06;2075993;28;19931;-55
2022/06/23 05:48:42;;;;;;;;;;;;;;;25.90;54.60;99106.91;2075882;28;19944;-55
2022/06/23 05:49:46;;;;;;;;;;;;;;;25.91;54.51;99114.09;2071896;28;19925;-55
2022/06/23 05:50:56;;;;;;;;;;;;;;;25.92;54.66;99115.81;2076475;28;19917;-55
2022/06/23 05:52:07;;;;;;;;;;;;;;;25.91;54.78;99118.78;2077802;28;19916;-55